Terminal Aerodrome Forecast
Issued by NWS

Home | Current Version | Previous Version | Text Only | Print | Product List | Glossary On
Versions: 1 2 3 4 5 6 7 8 9 10 11 12 13 14 15 16 17 18 19 20
470
FTUS44 KLIX 011744
TAFMCB
TAF
KMCB 011744Z 0118/0218 13010KT P6SM -RA SCT025 BKN080
      TEMPO 0118/0122 3SM -TSRA OVC015CB
     FM020200 14005KT P6SM OVC015
     FM020400 13005KT P6SM BKN010
     FM020900 14003KT 1SM BR OVC005
     FM021400 14004KT P6SM OVC015=

USA.gov is the U.S. government's official web portal to all federal, state and local government web resources and services.